AEA56TP LEZL-GCXO
Flight info
| Callsign | AEA56TP |
|---|---|
| Flight time | 1h 54m |
| Altitude | 33000 |
| Route | ONUBA N747 MINTA DCT BAROK UN873 SAMAR |
| Aircraft | B738/M-SDFGHIJ1RWXY/LB1 |
Departure
| Time | 2026-04-17 07:47 |
|---|---|
| Airport | Seville Airport (LEZL) |
Arrival
| Time | 2026-04-17 09:41 |
|---|---|
| Airport | Tenerife Norte-Ciudad de La Laguna Airport (GCXO) |
| Time | Latitude | Longitude | Altitude | Speed | Heading |
|---|---|---|---|---|---|
| 2026-04-17 07:15 | 37.42183 | -5.89980 | 96 ft | 0 kts | 314° |
| 2026-04-17 07:38 | 37.42180 | -5.89976 | 93 ft | 4 kts | 314° |
| 2026-04-17 07:38 | 37.42162 | -5.89950 | 93 ft | 4 kts | 307° |
| 2026-04-17 07:39 | 37.42145 | -5.89928 | 91 ft | 4 kts | 348° |
| 2026-04-17 07:39 | 37.42124 | -5.89933 | 92 ft | 3 kts | 44° |
| 2026-04-17 07:39 | 37.42109 | -5.89951 | 92 ft | 2 kts | 45° |
| 2026-04-17 07:39 | 37.42108 | -5.89953 | 92 ft | 1 kts | 45° |
| 2026-04-17 07:41 | 37.42133 | -5.89922 | 93 ft | 12 kts | 45° |
| 2026-04-17 07:42 | 37.42210 | -5.89826 | 94 ft | 17 kts | 45° |
| 2026-04-17 07:42 | 37.42265 | -5.89734 | 93 ft | 13 kts | 87° |
| 2026-04-17 07:42 | 37.42210 | -5.89648 | 93 ft | 13 kts | 135° |
| 2026-04-17 07:42 | 37.42148 | -5.89569 | 97 ft | 13 kts | 135° |
| 2026-04-17 07:43 | 37.42083 | -5.89486 | 97 ft | 14 kts | 134° |
| 2026-04-17 07:43 | 37.42009 | -5.89389 | 98 ft | 16 kts | 133° |
| 2026-04-17 07:43 | 37.41983 | -5.89261 | 99 ft | 18 kts | 90° |
| 2026-04-17 07:43 | 37.41984 | -5.89063 | 100 ft | 27 kts | 90° |
| 2026-04-17 07:44 | 37.41985 | -5.88810 | 102 ft | 29 kts | 90° |
| 2026-04-17 07:44 | 37.41986 | -5.88566 | 103 ft | 27 kts | 90° |
| 2026-04-17 07:44 | 37.41986 | -5.88326 | 104 ft | 30 kts | 89° |
| 2026-04-17 07:44 | 37.41987 | -5.88058 | 106 ft | 30 kts | 90° |
| 2026-04-17 07:45 | 37.41988 | -5.87800 | 107 ft | 29 kts | 90° |
| 2026-04-17 07:45 | 37.41988 | -5.87580 | 108 ft | 21 kts | 94° |
| 2026-04-17 07:45 | 37.41932 | -5.87437 | 112 ft | 18 kts | 147° |
| 2026-04-17 07:45 | 37.41829 | -5.87453 | 115 ft | 15 kts | 218° |
| 2026-04-17 07:46 | 37.41799 | -5.87604 | 113 ft | 32 kts | 271° |
| 2026-04-17 07:46 | 37.41797 | -5.88226 | 105 ft | 109 kts | 269° |
| 2026-04-17 07:46 | 37.41796 | -5.89462 | 99 ft | 170 kts | 270° |
| 2026-04-17 07:46 | 37.41790 | -5.91074 | 573 ft | 188 kts | 270° |
| 2026-04-17 07:47 | 37.41884 | -5.92740 | 1411 ft | 192 kts | 285° |
| 2026-04-17 07:47 | 37.42446 | -5.94273 | 2192 ft | 196 kts | 307° |
| 2026-04-17 07:47 | 37.43326 | -5.95744 | 2593 ft | 222 kts | 308° |
| 2026-04-17 07:47 | 37.43994 | -5.97553 | 3064 ft | 238 kts | 278° |
| 2026-04-17 07:48 | 37.44056 | -5.99745 | 3359 ft | 265 kts | 270° |
| 2026-04-17 07:48 | 37.44135 | -6.02111 | 4056 ft | 275 kts | 274° |
| 2026-04-17 07:48 | 37.44285 | -6.04522 | 4984 ft | 278 kts | 274° |
| 2026-04-17 07:48 | 37.44448 | -6.06922 | 5922 ft | 278 kts | 274° |
| 2026-04-17 07:49 | 37.44421 | -6.09327 | 6880 ft | 276 kts | 255° |
| 2026-04-17 07:49 | 37.43621 | -6.11518 | 7669 ft | 278 kts | 233° |
| 2026-04-17 07:49 | 37.42275 | -6.13265 | 8475 ft | 280 kts | 216° |
| 2026-04-17 07:49 | 37.41218 | -6.14207 | 9024 ft | 283 kts | 213° |
| 2026-04-17 07:50 | 37.39559 | -6.15597 | 9813 ft | 288 kts | 213° |
| 2026-04-17 07:50 | 37.37855 | -6.16990 | 10486 ft | 297 kts | 213° |
| 2026-04-17 07:50 | 37.36055 | -6.18474 | 10693 ft | 323 kts | 217° |
| 2026-04-17 07:50 | 37.34472 | -6.20595 | 10872 ft | 346 kts | 237° |
| 2026-04-17 07:51 | 37.33456 | -6.23436 | 11032 ft | 368 kts | 255° |
| 2026-04-17 07:51 | 37.32890 | -6.26635 | 11323 ft | 382 kts | 258° |
| 2026-04-17 07:51 | 37.32380 | -6.29941 | 11985 ft | 385 kts | 259° |
| 2026-04-17 07:51 | 37.31865 | -6.33258 | 12710 ft | 386 kts | 258° |
| 2026-04-17 07:52 | 37.31327 | -6.36579 | 13320 ft | 391 kts | 258° |
| 2026-04-17 07:52 | 37.30763 | -6.39941 | 13944 ft | 396 kts | 258° |
| 2026-04-17 07:52 | 37.30189 | -6.43292 | 14557 ft | 398 kts | 258° |
| 2026-04-17 07:52 | 37.29601 | -6.46715 | 15207 ft | 401 kts | 258° |
| 2026-04-17 07:53 | 37.29020 | -6.50172 | 15756 ft | 407 kts | 258° |
| 2026-04-17 07:53 | 37.28437 | -6.53675 | 16325 ft | 412 kts | 258° |
| 2026-04-17 07:53 | 37.27850 | -6.57214 | 16920 ft | 416 kts | 258° |
| 2026-04-17 07:53 | 37.27254 | -6.60788 | 17506 ft | 420 kts | 257° |
| 2026-04-17 07:54 | 37.26660 | -6.64343 | 18058 ft | 424 kts | 257° |
| 2026-04-17 07:54 | 37.26048 | -6.67991 | 18594 ft | 428 kts | 258° |
| 2026-04-17 07:54 | 37.25432 | -6.71659 | 19127 ft | 431 kts | 257° |
| 2026-04-17 07:54 | 37.24811 | -6.75341 | 19721 ft | 431 kts | 257° |
| 2026-04-17 07:55 | 37.24164 | -6.79019 | 20295 ft | 433 kts | 256° |
| 2026-04-17 07:55 | 37.23470 | -6.82710 | 20819 ft | 435 kts | 256° |
| 2026-04-17 07:55 | 37.22756 | -6.86427 | 21334 ft | 438 kts | 255° |
| 2026-04-17 07:55 | 37.22039 | -6.90157 | 21845 ft | 440 kts | 256° |
| 2026-04-17 07:56 | 37.21325 | -6.93898 | 22345 ft | 442 kts | 256° |
| 2026-04-17 07:56 | 37.20620 | -6.97618 | 22821 ft | 444 kts | 256° |
| 2026-04-17 07:56 | 37.19894 | -7.01446 | 23296 ft | 447 kts | 255° |
| 2026-04-17 07:56 | 37.19171 | -7.05248 | 23743 ft | 449 kts | 255° |
| 2026-04-17 07:57 | 37.18450 | -7.09019 | 24105 ft | 451 kts | 255° |
| 2026-04-17 07:57 | 37.17716 | -7.12855 | 24463 ft | 453 kts | 255° |
| 2026-04-17 07:57 | 37.16977 | -7.16712 | 24811 ft | 456 kts | 255° |
| 2026-04-17 07:57 | 37.16234 | -7.20588 | 25152 ft | 458 kts | 255° |
| 2026-04-17 07:58 | 37.15500 | -7.24477 | 25497 ft | 460 kts | 255° |
| 2026-04-17 07:58 | 37.14768 | -7.28391 | 25826 ft | 462 kts | 255° |
| 2026-04-17 07:58 | 37.14030 | -7.32321 | 26160 ft | 464 kts | 255° |
| 2026-04-17 07:58 | 37.13278 | -7.36248 | 26588 ft | 463 kts | 253° |
| 2026-04-17 07:59 | 37.12246 | -7.40056 | 27077 ft | 459 kts | 245° |
| 2026-04-17 07:59 | 37.10791 | -7.43607 | 27607 ft | 456 kts | 240° |
| 2026-04-17 07:59 | 37.09297 | -7.47050 | 28057 ft | 455 kts | 240° |
| 2026-04-17 07:59 | 37.07781 | -7.50528 | 28491 ft | 455 kts | 240° |
| 2026-04-17 08:00 | 37.06272 | -7.54005 | 28957 ft | 454 kts | 240° |
| 2026-04-17 08:00 | 37.04773 | -7.57484 | 29488 ft | 452 kts | 240° |
| 2026-04-17 08:00 | 37.03290 | -7.60945 | 30006 ft | 450 kts | 240° |
| 2026-04-17 08:00 | 37.01822 | -7.64381 | 30559 ft | 446 kts | 240° |
| 2026-04-17 08:01 | 37.00365 | -7.67796 | 30986 ft | 445 kts | 240° |
| 2026-04-17 08:01 | 36.98905 | -7.71220 | 31296 ft | 446 kts | 240° |
| 2026-04-17 08:01 | 36.97438 | -7.74656 | 31572 ft | 448 kts | 241° |
| 2026-04-17 08:01 | 36.95964 | -7.78102 | 31883 ft | 449 kts | 241° |
| 2026-04-17 08:02 | 36.94493 | -7.81541 | 32306 ft | 447 kts | 241° |
| 2026-04-17 08:02 | 36.93031 | -7.84954 | 32749 ft | 445 kts | 241° |
| 2026-04-17 08:02 | 36.91589 | -7.88316 | 33098 ft | 445 kts | 241° |
| 2026-04-17 08:02 | 36.90115 | -7.91748 | 33090 ft | 451 kts | 241° |
| 2026-04-17 08:03 | 36.87129 | -7.98689 | 33100 ft | 453 kts | 241° |
| 2026-04-17 08:03 | 36.84154 | -8.05594 | 33094 ft | 448 kts | 241° |
| 2026-04-17 08:04 | 36.81193 | -8.12449 | 33102 ft | 448 kts | 241° |
| 2026-04-17 08:04 | 36.78254 | -8.19238 | 33098 ft | 447 kts | 241° |
| 2026-04-17 08:05 | 36.75295 | -8.26061 | 33092 ft | 447 kts | 240° |
| 2026-04-17 08:05 | 36.72325 | -8.32893 | 33089 ft | 448 kts | 240° |
| 2026-04-17 08:06 | 36.69350 | -8.39724 | 33090 ft | 448 kts | 241° |
| 2026-04-17 08:06 | 36.66370 | -8.46551 | 33090 ft | 448 kts | 241° |
| 2026-04-17 08:07 | 36.63385 | -8.53377 | 33090 ft | 449 kts | 241° |
| 2026-04-17 08:07 | 36.60416 | -8.60152 | 33089 ft | 449 kts | 241° |
| 2026-04-17 08:08 | 36.57413 | -8.66989 | 33088 ft | 449 kts | 241° |
| 2026-04-17 08:08 | 36.54409 | -8.73815 | 33092 ft | 449 kts | 241° |
| 2026-04-17 08:09 | 36.51414 | -8.80607 | 33089 ft | 449 kts | 241° |
| 2026-04-17 08:09 | 36.48406 | -8.87413 | 33088 ft | 449 kts | 241° |
| 2026-04-17 08:10 | 36.45395 | -8.94212 | 33090 ft | 448 kts | 241° |
| 2026-04-17 08:10 | 36.42386 | -9.00994 | 33088 ft | 448 kts | 241° |
| 2026-04-17 08:11 | 36.39376 | -9.07764 | 33083 ft | 447 kts | 241° |
| 2026-04-17 08:11 | 36.36366 | -9.14520 | 33089 ft | 447 kts | 241° |
| 2026-04-17 08:12 | 36.33356 | -9.21260 | 33087 ft | 446 kts | 241° |
| 2026-04-17 08:12 | 36.30363 | -9.27952 | 33089 ft | 446 kts | 241° |
| 2026-04-17 08:13 | 36.27340 | -9.34694 | 33089 ft | 446 kts | 241° |
| 2026-04-17 08:14 | 36.22831 | -9.44729 | 33089 ft | 445 kts | 240° |
| 2026-04-17 08:14 | 36.19808 | -9.51438 | 33099 ft | 445 kts | 241° |
| 2026-04-17 08:15 | 36.16792 | -9.58118 | 33093 ft | 444 kts | 241° |
| 2026-04-17 08:15 | 36.13780 | -9.64777 | 33089 ft | 443 kts | 240° |
| 2026-04-17 08:16 | 36.10784 | -9.71388 | 33098 ft | 442 kts | 240° |
| 2026-04-17 08:16 | 36.07769 | -9.78028 | 33092 ft | 442 kts | 241° |
| 2026-04-17 08:17 | 36.04758 | -9.84646 | 33110 ft | 441 kts | 241° |
| 2026-04-17 08:17 | 36.01745 | -9.91260 | 33101 ft | 441 kts | 241° |
| 2026-04-17 08:18 | 35.98753 | -9.97810 | 33097 ft | 440 kts | 241° |
| 2026-04-17 08:18 | 35.95013 | -10.03797 | 33111 ft | 442 kts | 225° |
| 2026-04-17 08:19 | 35.90169 | -10.08512 | 33102 ft | 444 kts | 218° |
| 2026-04-17 08:19 | 35.85199 | -10.13039 | 33102 ft | 444 kts | 218° |
| 2026-04-17 08:20 | 35.80240 | -10.17587 | 33356 ft | 449 kts | 219° |
| 2026-04-17 08:20 | 35.77746 | -10.19887 | 33803 ft | 446 kts | 219° |
| 2026-04-17 08:20 | 35.75277 | -10.22167 | 34326 ft | 441 kts | 219° |
| 2026-04-17 08:20 | 35.72832 | -10.24427 | 34714 ft | 439 kts | 219° |
| 2026-04-17 08:21 | 35.70387 | -10.26686 | 34980 ft | 439 kts | 219° |
| 2026-04-17 08:21 | 35.67944 | -10.28943 | 35232 ft | 440 kts | 219° |
| 2026-04-17 08:21 | 35.65496 | -10.31204 | 35546 ft | 439 kts | 219° |
| 2026-04-17 08:21 | 35.63057 | -10.33453 | 35877 ft | 437 kts | 219° |
| 2026-04-17 08:22 | 35.60624 | -10.35693 | 36187 ft | 436 kts | 219° |
| 2026-04-17 08:22 | 35.58202 | -10.37923 | 36460 ft | 436 kts | 219° |
| 2026-04-17 08:22 | 35.55799 | -10.40133 | 36739 ft | 435 kts | 219° |
| 2026-04-17 08:22 | 35.53378 | -10.42358 | 37041 ft | 434 kts | 219° |
| 2026-04-17 08:23 | 35.50953 | -10.44586 | 37096 ft | 438 kts | 219° |
| 2026-04-17 08:23 | 35.46079 | -10.49057 | 37101 ft | 436 kts | 219° |
| 2026-04-17 08:24 | 35.41244 | -10.53483 | 37105 ft | 432 kts | 219° |
| 2026-04-17 08:24 | 35.36437 | -10.57878 | 37115 ft | 430 kts | 219° |
| 2026-04-17 08:25 | 35.31639 | -10.62259 | 37111 ft | 428 kts | 219° |
| 2026-04-17 08:25 | 35.26859 | -10.66617 | 37098 ft | 428 kts | 219° |
| 2026-04-17 08:26 | 35.22079 | -10.70968 | 37109 ft | 428 kts | 219° |
| 2026-04-17 08:26 | 35.17316 | -10.75298 | 37110 ft | 430 kts | 219° |
| 2026-04-17 08:27 | 35.12501 | -10.79668 | 37112 ft | 431 kts | 219° |
| 2026-04-17 08:27 | 35.07659 | -10.84055 | 37114 ft | 433 kts | 219° |
| 2026-04-17 08:28 | 35.02809 | -10.88444 | 37118 ft | 434 kts | 219° |
| 2026-04-17 08:28 | 34.97942 | -10.92840 | 37106 ft | 435 kts | 219° |
| 2026-04-17 08:29 | 34.93074 | -10.97231 | 37116 ft | 435 kts | 219° |
| 2026-04-17 08:29 | 34.88228 | -11.01596 | 37114 ft | 435 kts | 219° |
| 2026-04-17 08:30 | 34.83367 | -11.05968 | 37113 ft | 433 kts | 219° |
| 2026-04-17 08:30 | 34.78518 | -11.10323 | 37109 ft | 432 kts | 219° |
| 2026-04-17 08:31 | 34.73685 | -11.14658 | 37105 ft | 431 kts | 219° |
| 2026-04-17 08:31 | 34.68866 | -11.18974 | 37111 ft | 429 kts | 219° |
| 2026-04-17 08:32 | 34.64092 | -11.23243 | 37110 ft | 428 kts | 219° |
| 2026-04-17 08:32 | 34.59295 | -11.27536 | 37108 ft | 427 kts | 220° |
| 2026-04-17 08:33 | 34.54521 | -11.31821 | 37120 ft | 427 kts | 220° |
| 2026-04-17 08:33 | 34.49747 | -11.36102 | 37110 ft | 426 kts | 220° |
| 2026-04-17 08:34 | 34.44985 | -11.40366 | 37100 ft | 425 kts | 220° |
| 2026-04-17 08:34 | 34.40230 | -11.44615 | 37111 ft | 425 kts | 220° |
| 2026-04-17 08:35 | 34.35468 | -11.48866 | 37112 ft | 425 kts | 220° |
| 2026-04-17 08:35 | 34.30741 | -11.53079 | 37112 ft | 425 kts | 220° |
| 2026-04-17 08:36 | 34.25979 | -11.57316 | 37106 ft | 425 kts | 220° |
| 2026-04-17 08:36 | 34.21209 | -11.61555 | 37112 ft | 425 kts | 220° |
| 2026-04-17 08:37 | 34.17244 | -11.65074 | 37090 ft | 426 kts | 220° |
| 2026-04-17 08:37 | 34.12468 | -11.69307 | 37100 ft | 426 kts | 220° |
| 2026-04-17 08:38 | 34.07690 | -11.73535 | 37109 ft | 426 kts | 220° |
| 2026-04-17 08:38 | 34.02902 | -11.77767 | 37110 ft | 426 kts | 220° |
| 2026-04-17 08:39 | 33.98137 | -11.81971 | 37109 ft | 426 kts | 220° |
| 2026-04-17 08:39 | 33.93338 | -11.86201 | 37108 ft | 427 kts | 220° |
| 2026-04-17 08:40 | 33.88537 | -11.90426 | 37096 ft | 427 kts | 220° |
| 2026-04-17 08:40 | 33.83761 | -11.94622 | 37112 ft | 427 kts | 219° |
| 2026-04-17 08:41 | 33.78957 | -11.98837 | 37111 ft | 427 kts | 219° |
| 2026-04-17 08:41 | 33.74155 | -12.03045 | 37109 ft | 427 kts | 219° |
| 2026-04-17 08:42 | 33.69347 | -12.07253 | 37115 ft | 427 kts | 219° |
| 2026-04-17 08:42 | 33.64575 | -12.11422 | 37111 ft | 427 kts | 219° |
| 2026-04-17 08:43 | 33.59770 | -12.15614 | 37095 ft | 426 kts | 219° |
| 2026-04-17 08:43 | 33.54975 | -12.19792 | 37111 ft | 426 kts | 219° |
| 2026-04-17 08:44 | 33.50172 | -12.23971 | 37107 ft | 426 kts | 219° |
| 2026-04-17 08:44 | 33.45374 | -12.28141 | 37110 ft | 426 kts | 219° |
| 2026-04-17 08:45 | 33.40598 | -12.32284 | 37112 ft | 426 kts | 219° |
| 2026-04-17 08:45 | 33.35792 | -12.36449 | 37109 ft | 426 kts | 219° |
| 2026-04-17 08:46 | 33.30987 | -12.40606 | 37102 ft | 426 kts | 219° |
| 2026-04-17 08:46 | 33.26213 | -12.44731 | 37107 ft | 426 kts | 219° |
| 2026-04-17 08:47 | 33.21410 | -12.48876 | 37109 ft | 426 kts | 219° |
| 2026-04-17 08:47 | 33.16599 | -12.53021 | 37109 ft | 426 kts | 219° |
| 2026-04-17 08:48 | 33.11789 | -12.57160 | 37107 ft | 426 kts | 219° |
| 2026-04-17 08:48 | 33.06974 | -12.61298 | 37106 ft | 426 kts | 219° |
| 2026-04-17 08:49 | 33.02149 | -12.65439 | 37091 ft | 427 kts | 219° |
| 2026-04-17 08:49 | 32.97361 | -12.69542 | 37104 ft | 426 kts | 219° |
| 2026-04-17 08:50 | 32.92537 | -12.73672 | 37102 ft | 427 kts | 219° |
| 2026-04-17 08:50 | 32.87710 | -12.77799 | 37114 ft | 427 kts | 219° |
| 2026-04-17 08:51 | 32.82874 | -12.81920 | 37108 ft | 427 kts | 219° |
| 2026-04-17 08:51 | 32.78065 | -12.85992 | 37107 ft | 427 kts | 219° |
| 2026-04-17 08:52 | 32.73220 | -12.90086 | 37103 ft | 427 kts | 219° |
| 2026-04-17 08:52 | 32.68368 | -12.94184 | 37106 ft | 426 kts | 219° |
| 2026-04-17 08:53 | 32.63565 | -12.98238 | 37110 ft | 426 kts | 219° |
| 2026-04-17 08:53 | 32.58732 | -13.02310 | 37109 ft | 426 kts | 219° |
| 2026-04-17 08:54 | 32.53896 | -13.06380 | 37106 ft | 425 kts | 219° |
| 2026-04-17 08:54 | 32.49062 | -13.10444 | 37106 ft | 425 kts | 219° |
| 2026-04-17 08:55 | 32.44256 | -13.14478 | 37100 ft | 425 kts | 219° |
| 2026-04-17 08:55 | 32.39429 | -13.18524 | 37106 ft | 425 kts | 219° |
| 2026-04-17 08:56 | 32.34605 | -13.22563 | 37100 ft | 424 kts | 219° |
| 2026-04-17 08:56 | 32.29775 | -13.26601 | 37101 ft | 424 kts | 219° |
| 2026-04-17 08:57 | 32.24973 | -13.30611 | 37103 ft | 424 kts | 219° |
| 2026-04-17 08:57 | 32.20144 | -13.34637 | 37104 ft | 424 kts | 219° |
| 2026-04-17 08:58 | 32.15341 | -13.38637 | 37088 ft | 424 kts | 219° |
| 2026-04-17 08:58 | 32.10510 | -13.42654 | 37101 ft | 424 kts | 219° |
| 2026-04-17 08:59 | 32.05710 | -13.46641 | 37101 ft | 424 kts | 219° |
| 2026-04-17 08:59 | 32.00873 | -13.50653 | 37111 ft | 425 kts | 219° |
| 2026-04-17 09:00 | 31.96036 | -13.54660 | 37101 ft | 425 kts | 219° |
| 2026-04-17 09:00 | 31.91187 | -13.58671 | 37104 ft | 425 kts | 219° |
| 2026-04-17 09:01 | 31.86378 | -13.62645 | 37089 ft | 425 kts | 219° |
| 2026-04-17 09:01 | 31.81536 | -13.66640 | 37101 ft | 425 kts | 219° |
| 2026-04-17 09:02 | 31.76696 | -13.70628 | 37103 ft | 425 kts | 219° |
| 2026-04-17 09:02 | 31.71852 | -13.74615 | 37101 ft | 425 kts | 219° |
| 2026-04-17 09:03 | 31.67004 | -13.78599 | 37103 ft | 425 kts | 219° |
| 2026-04-17 09:03 | 31.62186 | -13.82555 | 37101 ft | 425 kts | 219° |
| 2026-04-17 09:04 | 31.57330 | -13.86536 | 37094 ft | 425 kts | 219° |
| 2026-04-17 09:04 | 31.52475 | -13.90510 | 37102 ft | 425 kts | 219° |
| 2026-04-17 09:05 | 31.47628 | -13.94474 | 37100 ft | 425 kts | 219° |
| 2026-04-17 09:05 | 31.42771 | -13.98441 | 37100 ft | 424 kts | 219° |
| 2026-04-17 09:06 | 31.37955 | -14.02370 | 37101 ft | 424 kts | 219° |
| 2026-04-17 09:06 | 31.33103 | -14.06324 | 37102 ft | 424 kts | 219° |
| 2026-04-17 09:07 | 31.28258 | -14.10276 | 37081 ft | 424 kts | 219° |
| 2026-04-17 09:07 | 31.23431 | -14.14244 | 37103 ft | 424 kts | 219° |
| 2026-04-17 09:08 | 31.18605 | -14.18212 | 37103 ft | 424 kts | 219° |
| 2026-04-17 09:08 | 31.13807 | -14.22148 | 37097 ft | 424 kts | 219° |
| 2026-04-17 09:09 | 31.08969 | -14.26109 | 37101 ft | 424 kts | 219° |
| 2026-04-17 09:09 | 31.04137 | -14.30061 | 37089 ft | 424 kts | 219° |
| 2026-04-17 09:10 | 30.96891 | -14.35980 | 37081 ft | 423 kts | 219° |
| 2026-04-17 09:10 | 30.92093 | -14.39893 | 37091 ft | 423 kts | 219° |
| 2026-04-17 09:11 | 30.87260 | -14.43818 | 37097 ft | 423 kts | 218° |
| 2026-04-17 09:11 | 30.82411 | -14.47721 | 37091 ft | 423 kts | 218° |
| 2026-04-17 09:12 | 30.77562 | -14.51619 | 37103 ft | 423 kts | 218° |
| 2026-04-17 09:12 | 30.72713 | -14.55516 | 37094 ft | 423 kts | 218° |
| 2026-04-17 09:13 | 30.67891 | -14.59389 | 37088 ft | 423 kts | 218° |
| 2026-04-17 09:13 | 30.63041 | -14.63280 | 37095 ft | 423 kts | 218° |
| 2026-04-17 09:14 | 30.58192 | -14.67165 | 37091 ft | 423 kts | 218° |
| 2026-04-17 09:14 | 30.53341 | -14.71048 | 37090 ft | 423 kts | 218° |
| 2026-04-17 09:15 | 30.48487 | -14.74927 | 37091 ft | 424 kts | 218° |
| 2026-04-17 09:15 | 30.43656 | -14.78784 | 37094 ft | 424 kts | 218° |
| 2026-04-17 09:16 | 30.38797 | -14.82658 | 37080 ft | 424 kts | 218° |
| 2026-04-17 09:16 | 30.33935 | -14.86530 | 37089 ft | 423 kts | 218° |
| 2026-04-17 09:17 | 30.29077 | -14.90394 | 37091 ft | 423 kts | 218° |
| 2026-04-17 09:17 | 30.24248 | -14.94230 | 37097 ft | 423 kts | 218° |
| 2026-04-17 09:18 | 30.19387 | -14.98087 | 37092 ft | 423 kts | 218° |
| 2026-04-17 09:18 | 30.14523 | -15.01941 | 37092 ft | 423 kts | 218° |
| 2026-04-17 09:19 | 30.09699 | -15.05759 | 37089 ft | 422 kts | 218° |
| 2026-04-17 09:19 | 30.04849 | -15.09593 | 37083 ft | 422 kts | 218° |
| 2026-04-17 09:20 | 30.00006 | -15.13418 | 37093 ft | 421 kts | 218° |
| 2026-04-17 09:20 | 29.95174 | -15.17227 | 36832 ft | 420 kts | 218° |
| 2026-04-17 09:21 | 29.92802 | -15.19096 | 36397 ft | 415 kts | 218° |
| 2026-04-17 09:21 | 29.90427 | -15.20965 | 35874 ft | 411 kts | 218° |
| 2026-04-17 09:21 | 29.88064 | -15.22824 | 35265 ft | 411 kts | 218° |
| 2026-04-17 09:21 | 29.85703 | -15.24682 | 34679 ft | 410 kts | 217° |
| 2026-04-17 09:22 | 29.83349 | -15.26533 | 34078 ft | 409 kts | 217° |
| 2026-04-17 09:22 | 29.81001 | -15.28378 | 33383 ft | 408 kts | 217° |
| 2026-04-17 09:22 | 29.78655 | -15.30220 | 32716 ft | 406 kts | 217° |
| 2026-04-17 09:22 | 29.76324 | -15.32049 | 32068 ft | 405 kts | 217° |
| 2026-04-17 09:23 | 29.73999 | -15.33875 | 31433 ft | 416 kts | 217° |
| 2026-04-17 09:23 | 29.71578 | -15.35776 | 30792 ft | 423 kts | 217° |
| 2026-04-17 09:23 | 29.69141 | -15.37686 | 29829 ft | 426 kts | 216° |
| 2026-04-17 09:23 | 29.66667 | -15.39623 | 28619 ft | 433 kts | 216° |
| 2026-04-17 09:24 | 29.64153 | -15.41590 | 27353 ft | 441 kts | 216° |
| 2026-04-17 09:24 | 29.61598 | -15.43587 | 26163 ft | 447 kts | 216° |
| 2026-04-17 09:24 | 29.59047 | -15.45579 | 25563 ft | 439 kts | 216° |
| 2026-04-17 09:24 | 29.56543 | -15.47529 | 24937 ft | 433 kts | 216° |
| 2026-04-17 09:25 | 29.54020 | -15.49483 | 24351 ft | 437 kts | 216° |
| 2026-04-17 09:25 | 29.51513 | -15.51417 | 23772 ft | 439 kts | 216° |
| 2026-04-17 09:25 | 29.48973 | -15.53374 | 23085 ft | 436 kts | 216° |
| 2026-04-17 09:25 | 29.46429 | -15.55249 | 22382 ft | 433 kts | 210° |
| 2026-04-17 09:26 | 29.43712 | -15.56730 | 21727 ft | 431 kts | 205° |
| 2026-04-17 09:26 | 29.40970 | -15.58115 | 21071 ft | 429 kts | 205° |
| 2026-04-17 09:26 | 29.39160 | -15.59021 | 20645 ft | 428 kts | 205° |
| 2026-04-17 09:26 | 29.35554 | -15.60837 | 19926 ft | 424 kts | 205° |
| 2026-04-17 09:27 | 29.32869 | -15.62206 | 19388 ft | 420 kts | 205° |
| 2026-04-17 09:27 | 29.31070 | -15.63131 | 19045 ft | 419 kts | 205° |
| 2026-04-17 09:27 | 29.28418 | -15.64503 | 18555 ft | 417 kts | 205° |
| 2026-04-17 09:27 | 29.25777 | -15.65875 | 17999 ft | 416 kts | 205° |
| 2026-04-17 09:28 | 29.23149 | -15.67242 | 17426 ft | 414 kts | 205° |
| 2026-04-17 09:28 | 29.20577 | -15.68579 | 16872 ft | 409 kts | 206° |
| 2026-04-17 09:28 | 29.18011 | -15.69913 | 16319 ft | 401 kts | 205° |
| 2026-04-17 09:28 | 29.15485 | -15.71226 | 15842 ft | 396 kts | 205° |
| 2026-04-17 09:29 | 29.12985 | -15.72524 | 15436 ft | 393 kts | 205° |
| 2026-04-17 09:29 | 29.10503 | -15.73813 | 15028 ft | 390 kts | 206° |
| 2026-04-17 09:29 | 29.08042 | -15.75091 | 14618 ft | 388 kts | 206° |
| 2026-04-17 09:29 | 29.05588 | -15.76363 | 14228 ft | 386 kts | 206° |
| 2026-04-17 09:30 | 29.03141 | -15.77632 | 13831 ft | 385 kts | 206° |
| 2026-04-17 09:30 | 29.00702 | -15.78896 | 13390 ft | 383 kts | 206° |
| 2026-04-17 09:30 | 28.98327 | -15.80125 | 12907 ft | 376 kts | 205° |
| 2026-04-17 09:30 | 28.95966 | -15.81347 | 12357 ft | 369 kts | 205° |
| 2026-04-17 09:31 | 28.93637 | -15.82551 | 11696 ft | 365 kts | 205° |
| 2026-04-17 09:31 | 28.91344 | -15.83737 | 11209 ft | 359 kts | 205° |
| 2026-04-17 09:31 | 28.89099 | -15.84897 | 10856 ft | 348 kts | 204° |
| 2026-04-17 09:31 | 28.86934 | -15.86015 | 10610 ft | 334 kts | 204° |
| 2026-04-17 09:32 | 28.84877 | -15.87078 | 10366 ft | 323 kts | 204° |
| 2026-04-17 09:32 | 28.82862 | -15.88117 | 10125 ft | 313 kts | 204° |
| 2026-04-17 09:32 | 28.80906 | -15.89127 | 9899 ft | 303 kts | 204° |
| 2026-04-17 09:32 | 28.79008 | -15.90106 | 9672 ft | 294 kts | 204° |
| 2026-04-17 09:33 | 28.77172 | -15.91052 | 9437 ft | 285 kts | 204° |
| 2026-04-17 09:33 | 28.75386 | -15.91972 | 9221 ft | 278 kts | 203° |
| 2026-04-17 09:33 | 28.73649 | -15.92867 | 9003 ft | 271 kts | 203° |
| 2026-04-17 09:33 | 28.71941 | -15.93746 | 8785 ft | 268 kts | 203° |
| 2026-04-17 09:34 | 28.70271 | -15.94605 | 8581 ft | 266 kts | 203° |
| 2026-04-17 09:34 | 28.68580 | -15.95474 | 8366 ft | 266 kts | 203° |
| 2026-04-17 09:34 | 28.66894 | -15.96341 | 8165 ft | 266 kts | 203° |
| 2026-04-17 09:34 | 28.65218 | -15.97230 | 7922 ft | 264 kts | 205° |
| 2026-04-17 09:35 | 28.63583 | -15.98188 | 7605 ft | 263 kts | 206° |
| 2026-04-17 09:35 | 28.61962 | -15.99162 | 7368 ft | 264 kts | 206° |
| 2026-04-17 09:35 | 28.60341 | -16.00142 | 7153 ft | 264 kts | 206° |
| 2026-04-17 09:35 | 28.58729 | -16.01126 | 6916 ft | 262 kts | 208° |
| 2026-04-17 09:36 | 28.57355 | -16.02478 | 6624 ft | 264 kts | 226° |
| 2026-04-17 09:36 | 28.56175 | -16.04088 | 6275 ft | 265 kts | 226° |
| 2026-04-17 09:36 | 28.54997 | -16.05715 | 5878 ft | 267 kts | 229° |
| 2026-04-17 09:36 | 28.53902 | -16.07426 | 5585 ft | 267 kts | 231° |
| 2026-04-17 09:37 | 28.52848 | -16.09129 | 5238 ft | 267 kts | 231° |
| 2026-04-17 09:37 | 28.51771 | -16.10878 | 4928 ft | 266 kts | 231° |
| 2026-04-17 09:37 | 28.50739 | -16.12558 | 4827 ft | 257 kts | 231° |
| 2026-04-17 09:37 | 28.49738 | -16.14197 | 4753 ft | 247 kts | 231° |
| 2026-04-17 09:38 | 28.48779 | -16.15773 | 4681 ft | 237 kts | 231° |
| 2026-04-17 09:38 | 28.47878 | -16.17277 | 4584 ft | 225 kts | 233° |
| 2026-04-17 09:38 | 28.47092 | -16.18776 | 4429 ft | 215 kts | 236° |
| 2026-04-17 09:38 | 28.46376 | -16.20206 | 4309 ft | 202 kts | 236° |
| 2026-04-17 09:39 | 28.45691 | -16.21584 | 4039 ft | 198 kts | 236° |
| 2026-04-17 09:39 | 28.45048 | -16.22952 | 3757 ft | 194 kts | 246° |
| 2026-04-17 09:39 | 28.45054 | -16.24427 | 3574 ft | 186 kts | 286° |
| 2026-04-17 09:39 | 28.45487 | -16.25753 | 3382 ft | 176 kts | 286° |
| 2026-04-17 09:40 | 28.45912 | -16.27054 | 3121 ft | 176 kts | 287° |
| 2026-04-17 09:40 | 28.46338 | -16.28338 | 2893 ft | 172 kts | 289° |
| 2026-04-17 09:40 | 28.46752 | -16.29590 | 2659 ft | 168 kts | 290° |
| 2026-04-17 09:40 | 28.47158 | -16.30824 | 2433 ft | 164 kts | 290° |
| 2026-04-17 09:41 | 28.47562 | -16.32026 | 2159 ft | 161 kts | 291° |
| 2026-04-17 09:41 | 28.47945 | -16.33186 | 2039 ft | 147 kts | 291° |
| 2026-04-17 09:41 | 28.48248 | -16.34097 | 2049 ft | 94 kts | 290° |
| 2026-04-17 09:41 | 28.48409 | -16.34582 | 2069 ft | 49 kts | 290° |
| 2026-04-17 09:42 | 28.48519 | -16.34916 | 2085 ft | 42 kts | 290° |
| 2026-04-17 09:42 | 28.48620 | -16.35186 | 2085 ft | 32 kts | 303° |
| 2026-04-17 09:42 | 28.48709 | -16.35317 | 2080 ft | 11 kts | 324° |
| 2026-04-17 09:42 | 28.48757 | -16.35287 | 2077 ft | 9 kts | 105° |
| 2026-04-17 09:43 | 28.48736 | -16.35217 | 2079 ft | 9 kts | 110° |
| 2026-04-17 09:43 | 28.48711 | -16.35147 | 2080 ft | 10 kts | 111° |
| 2026-04-17 09:43 | 28.48677 | -16.35044 | 2082 ft | 18 kts | 111° |
| 2026-04-17 09:43 | 28.48631 | -16.34905 | 2082 ft | 20 kts | 110° |
| 2026-04-17 09:44 | 28.48580 | -16.34747 | 2074 ft | 23 kts | 110° |
| 2026-04-17 09:44 | 28.48540 | -16.34630 | 2069 ft | 7 kts | 111° |
| 2026-04-17 09:44 | 28.48556 | -16.34587 | 2067 ft | 8 kts | 12° |
| 2026-04-17 09:44 | 28.48607 | -16.34568 | 2067 ft | 8 kts | 20° |
| 2026-04-17 09:45 | 28.48635 | -16.34556 | 2066 ft | 1 kts | 21° |
| 2026-04-17 09:45 | 28.48636 | -16.34556 | 2066 ft | 0 kts | 21° |